createdAt,value
2022-08-09T00:01:54.131Z,3.05
2022-08-09T00:05:02.947Z,2.92
2022-08-09T00:08:31.824Z,2.90
2022-08-09T00:12:03.920Z,3.08
2022-08-09T00:15:06.771Z,3.03
2022-08-09T00:18:11.478Z,3.20
2022-08-09T00:21:15.260Z,3.28
2022-08-09T00:24:19.782Z,2.95
2022-08-09T00:27:22.585Z,3.37
2022-08-09T00:30:27.016Z,3.70
2022-08-09T00:33:32.679Z,3.20
2022-08-09T00:36:52.240Z,2.85
2022-08-09T00:40:12.955Z,3.55
2022-08-09T00:44:13.996Z,2.87
2022-08-09T00:46:56.340Z,2.50
2022-08-09T00:50:04.809Z,3.28
2022-08-09T00:53:10.127Z,2.97
2022-08-09T00:56:14.782Z,2.90
2022-08-09T00:59:31.646Z,2.90
2022-08-09T01:02:50.234Z,3.20
2022-08-09T01:06:22.229Z,3.15
2022-08-09T01:09:44.303Z,3.10
2022-08-09T01:13:04.611Z,3.50
2022-08-09T01:16:12.916Z,2.90
2022-08-09T01:19:43.044Z,3.08
2022-08-09T01:24:02.478Z,3.20
2022-08-09T01:26:57.656Z,3.55
2022-08-09T01:30:08.425Z,3.03
2022-08-09T01:33:38.538Z,3.20
2022-08-09T01:36:43.293Z,3.00
2022-08-09T01:39:50.668Z,3.35
2022-08-09T01:42:57.029Z,3.17
2022-08-09T01:46:00.735Z,3.33
2022-08-09T01:49:24.103Z,3.20
2022-08-09T01:52:27.782Z,3.30
2022-08-09T01:55:35.722Z,3.20
2022-08-09T01:58:43.751Z,3.30
2022-08-09T02:01:58.497Z,3.28
2022-08-09T02:05:15.901Z,3.30
2022-08-09T02:08:40.609Z,3.08
2022-08-09T02:11:45.234Z,3.12
2022-08-09T02:14:52.060Z,3.42
2022-08-09T02:18:01.445Z,3.30
2022-08-09T02:21:22.090Z,3.53
2022-08-09T02:24:35.367Z,3.20
2022-08-09T02:27:57.835Z,2.95
2022-08-09T02:31:31.440Z,3.53
2022-08-09T02:34:51.815Z,3.30
2022-08-09T02:38:00.597Z,3.40
2022-08-09T02:41:11.723Z,3.53
2022-08-09T02:44:29.040Z,3.42
2022-08-09T02:47:58.121Z,3.80
2022-08-09T02:51:02.582Z,3.55
2022-08-09T02:54:07.166Z,3.67
2022-08-09T02:57:13.671Z,4.10
2022-08-09T03:00:27.085Z,3.50
2022-08-09T03:04:12.928Z,3.83
2022-08-09T03:06:56.358Z,4.05
2022-08-09T03:10:04.020Z,3.85
2022-08-09T03:13:08.316Z,4.10
2022-08-09T03:16:20.671Z,4.25
2022-08-09T03:19:59.278Z,4.28
2022-08-09T03:22:56.818Z,3.80
2022-08-09T03:26:05.093Z,4.00
2022-08-09T03:29:09.632Z,3.95
2022-08-09T03:32:17.357Z,4.20
2022-08-09T03:35:44.370Z,4.00
2022-08-09T03:38:46.094Z,4.35
2022-08-09T03:41:49.100Z,4.90
2022-08-09T03:45:09.004Z,4.30
2022-08-09T03:48:11.916Z,4.70
2022-08-09T03:51:56.613Z,4.70
2022-08-09T03:54:48.889Z,5.12
2022-08-09T03:58:03.327Z,4.80
2022-08-09T04:01:13.284Z,5.10
2022-08-09T04:04:17.477Z,5.72
2022-08-09T04:07:20.561Z,4.85
2022-08-09T04:10:29.027Z,4.57
2022-08-09T04:14:36.570Z,4.75
2022-08-09T04:16:57.426Z,5.15
2022-08-09T04:20:02.644Z,5.25
2022-08-09T04:23:10.007Z,4.40
2022-08-09T04:26:19.637Z,4.85
2022-08-09T04:29:26.248Z,4.70
2022-08-09T04:32:37.008Z,4.80
2022-08-09T04:35:42.475Z,4.70
2022-08-09T04:38:45.198Z,4.90
2022-08-09T04:41:48.146Z,4.78
2022-08-09T04:44:50.766Z,4.90
2022-08-09T04:48:01.204Z,4.82
2022-08-09T04:51:05.706Z,4.55
2022-08-09T04:54:08.654Z,4.85
2022-08-09T04:57:12.941Z,5.25
2022-08-09T05:00:16.991Z,4.60
2022-08-09T05:03:42.655Z,4.65
2022-08-09T05:06:44.200Z,5.07
2022-08-09T05:09:49.912Z,4.60
2022-08-09T05:12:53.188Z,4.70
2022-08-09T05:15:56.510Z,4.57
2022-08-09T05:19:00.635Z,4.50
2022-08-09T05:22:05.436Z,4.30
2022-08-09T05:25:32.649Z,4.60
2022-08-09T05:28:35.465Z,4.43
2022-08-09T05:31:46.397Z,4.50
2022-08-09T05:34:51.783Z,4.30
2022-08-09T05:37:55.836Z,4.78
2022-08-09T05:40:58.787Z,4.20
2022-08-09T05:44:01.639Z,4.03
2022-08-09T05:47:05.572Z,4.45
2022-08-09T05:50:30.611Z,4.15
2022-08-09T05:53:34.016Z,3.65
2022-08-09T05:56:39.035Z,4.37
2022-08-09T05:59:58.183Z,4.53
2022-08-09T06:03:03.634Z,3.70
2022-08-09T06:06:06.881Z,3.85
2022-08-09T06:09:40.659Z,3.83
2022-08-09T06:12:33.083Z,3.60
2022-08-09T06:15:36.608Z,3.28
2022-08-09T06:18:39.441Z,3.42
2022-08-09T06:21:51.500Z,3.70
2022-08-09T06:25:01.109Z,3.20
2022-08-09T06:28:04.039Z,3.72
2022-08-09T06:31:08.070Z,3.17
2022-08-09T06:34:10.595Z,3.20
2022-08-09T06:37:13.451Z,3.17
2022-08-09T06:40:21.738Z,3.28
2022-08-09T06:43:27.227Z,2.85
2022-08-09T06:50:11.998Z,3.20
2022-08-09T06:53:06.989Z,3.25
2022-08-09T06:56:09.787Z,2.90
2022-08-09T07:00:49.220Z,3.10
2022-08-09T07:02:36.720Z,2.70
2022-08-09T07:06:03.111Z,2.97
2022-08-09T07:09:04.580Z,3.33
2022-08-09T07:12:07.211Z,3.42
2022-08-09T07:18:39.301Z,3.08
2022-08-09T07:21:43.403Z,3.15
2022-08-09T07:24:58.768Z,2.87
2022-08-09T07:28:04.302Z,3.00
2022-08-09T07:31:07.086Z,2.83
2022-08-09T07:34:10.013Z,3.08
2022-08-09T07:37:23.458Z,3.05
2022-08-09T07:40:37.217Z,2.60
2022-08-09T07:43:56.264Z,2.75
2022-08-09T07:46:59.549Z,2.35
2022-08-09T07:50:08.619Z,2.50
2022-08-09T07:53:12.515Z,2.58
2022-08-09T07:56:27.143Z,2.60
2022-08-09T07:59:34.439Z,2.67
2022-08-09T08:02:48.760Z,2.28
2022-08-09T08:05:58.219Z,2.80
2022-08-09T08:09:07.507Z,2.50
2022-08-09T08:12:36.468Z,2.37
2022-08-09T08:15:37.666Z,2.67
2022-08-09T08:21:52.564Z,2.80
2022-08-09T08:24:57.451Z,2.70
2022-08-09T08:28:00.160Z,2.53
2022-08-09T08:31:14.243Z,3.15
2022-08-09T08:34:25.432Z,2.65
2022-08-09T08:37:41.913Z,2.55
2022-08-09T08:40:55.611Z,2.50
2022-08-09T08:44:02.542Z,2.22
2022-08-09T08:47:12.349Z,2.53
2022-08-09T08:50:18.211Z,2.55
2022-08-09T08:53:22.331Z,2.30
2022-08-09T08:56:28.192Z,2.35
2022-08-09T08:59:46.815Z,2.60
2022-08-09T09:02:53.552Z,2.20
2022-08-09T09:06:05.038Z,2.50
2022-08-09T09:09:41.209Z,2.28
2022-08-09T09:12:35.415Z,2.20
2022-08-09T09:15:38.857Z,1.92
2022-08-09T09:18:48.151Z,2.20
2022-08-09T09:22:11.300Z,2.03
2022-08-09T09:26:00.963Z,1.98
2022-08-09T09:29:03.965Z,2.08
2022-08-09T09:32:20.237Z,1.85
2022-08-09T09:36:02.577Z,2.30
2022-08-09T09:39:10.003Z,2.00
2022-08-09T09:42:24.680Z,1.85
2022-08-09T09:45:29.539Z,1.85
2022-08-09T09:48:35.135Z,1.90
2022-08-09T09:51:40.259Z,2.00
2022-08-09T09:58:15.534Z,2.22
2022-08-09T10:01:31.373Z,1.83
2022-08-09T10:04:42.295Z,1.62
2022-08-09T10:08:10.919Z,1.70
2022-08-09T10:11:54.298Z,1.98
2022-08-09T10:14:48.213Z,1.83
2022-08-09T10:17:56.242Z,1.98
2022-08-09T10:21:09.839Z,2.20
2022-08-09T10:24:16.109Z,2.33
2022-08-09T10:27:34.789Z,2.10
2022-08-09T10:34:18.925Z,1.90
2022-08-09T10:37:28.409Z,2.10
2022-08-09T10:40:41.116Z,2.08
2022-08-09T10:44:00.000Z,2.03
2022-08-09T10:48:12.703Z,2.08
2022-08-09T10:51:09.666Z,2.08
2022-08-09T10:54:13.839Z,2.12
2022-08-09T10:57:17.035Z,2.22
2022-08-09T11:00:28.839Z,2.08
2022-08-09T11:03:50.098Z,2.22
2022-08-09T11:07:03.724Z,2.12
2022-08-09T11:10:07.630Z,2.03
2022-08-09T11:13:49.093Z,2.10
2022-08-09T11:16:42.962Z,2.03
2022-08-09T11:20:20.495Z,2.08
2022-08-09T11:23:29.920Z,2.40
2022-08-09T11:26:40.824Z,2.20
2022-08-09T11:30:04.721Z,2.05
2022-08-09T11:33:19.181Z,2.10
2022-08-09T11:36:35.575Z,1.80
2022-08-09T11:40:06.385Z,2.15
2022-08-09T11:43:14.548Z,2.92
2022-08-09T11:46:18.647Z,2.00
2022-08-09T11:50:56.530Z,2.03
2022-08-09T11:53:58.363Z,2.03
2022-08-09T11:56:48.501Z,2.00
2022-08-09T11:59:52.226Z,2.47
2022-08-09T12:02:57.751Z,2.50
2022-08-09T12:06:08.671Z,2.25
2022-08-09T12:09:17.567Z,2.22
2022-08-09T12:12:29.204Z,2.08
2022-08-09T12:15:50.374Z,2.05
2022-08-09T12:18:55.637Z,2.28
2022-08-09T12:22:04.159Z,2.40
2022-08-09T12:25:15.586Z,2.25
2022-08-09T12:29:11.995Z,2.15
2022-08-09T12:32:02.198Z,2.50
2022-08-09T12:35:11.037Z,2.30
2022-08-09T12:38:29.810Z,2.60
2022-08-09T12:41:40.972Z,2.37
2022-08-09T12:44:52.464Z,2.42
2022-08-09T12:47:57.483Z,2.03
2022-08-09T12:51:04.028Z,2.50
2022-08-09T12:54:07.703Z,2.37
2022-08-09T12:57:10.815Z,2.22
2022-08-09T13:00:34.434Z,2.30
2022-08-09T13:03:53.607Z,2.05
2022-08-09T13:07:19.628Z,2.20
2022-08-09T13:10:23.472Z,2.30
2022-08-09T13:14:11.932Z,2.33
2022-08-09T13:17:08.493Z,2.67
2022-08-09T13:20:18.674Z,2.20
2022-08-09T13:24:16.340Z,2.20
2022-08-09T13:30:51.255Z,2.45
2022-08-09T13:33:53.775Z,2.97
2022-08-09T13:36:59.328Z,2.17
2022-08-09T13:41:50.597Z,2.50
2022-08-09T13:43:35.957Z,2.60
2022-08-09T13:47:17.762Z,2.83
2022-08-09T13:50:12.667Z,2.53
2022-08-09T13:53:21.060Z,2.42
2022-08-09T13:56:42.706Z,2.50
2022-08-09T13:59:52.986Z,2.47
2022-08-09T14:03:03.061Z,2.47
2022-08-09T14:06:26.443Z,2.78
2022-08-09T14:09:30.337Z,2.50
2022-08-09T14:12:37.903Z,2.47
2022-08-09T14:16:09.105Z,2.60
2022-08-09T14:19:07.090Z,2.80
2022-08-09T14:22:10.158Z,2.30
2022-08-09T14:25:13.128Z,2.65
2022-08-09T14:28:15.784Z,2.30
2022-08-09T14:31:23.764Z,2.80
2022-08-09T14:34:46.273Z,2.80
2022-08-09T14:38:03.009Z,2.42
2022-08-09T14:41:34.630Z,2.60
2022-08-09T14:44:32.621Z,2.50
2022-08-09T14:47:57.508Z,2.35
2022-08-09T14:51:02.485Z,2.90
2022-08-09T14:54:09.547Z,2.55
2022-08-09T14:57:12.457Z,2.72
2022-08-09T15:00:15.196Z,2.28
2022-08-09T15:03:20.013Z,2.70
2022-08-09T15:06:23.104Z,2.50
2022-08-09T15:10:04.538Z,2.00
2022-08-09T15:12:54.124Z,2.85
2022-08-09T15:15:57.195Z,2.65
2022-08-09T15:19:02.469Z,2.55
2022-08-09T15:22:18.749Z,2.62
2022-08-09T15:25:33.552Z,2.60
2022-08-09T15:28:44.252Z,2.50
2022-08-09T15:31:57.938Z,2.42
2022-08-09T15:35:01.053Z,2.40
2022-08-09T15:38:11.672Z,2.65
2022-08-09T15:41:22.297Z,2.45
2022-08-09T15:44:25.065Z,2.40
2022-08-09T15:47:47.086Z,2.78
2022-08-09T15:50:50.733Z,2.53
2022-08-09T15:54:04.806Z,2.70
2022-08-09T15:57:10.788Z,2.50
2022-08-09T16:00:25.868Z,2.70
2022-08-09T16:03:38.776Z,2.80
2022-08-09T16:06:44.739Z,2.70
2022-08-09T16:10:04.267Z,2.92
2022-08-09T16:13:21.207Z,2.17
2022-08-09T16:16:31.706Z,2.25
2022-08-09T16:19:36.540Z,2.17
2022-08-09T16:22:42.353Z,2.40
2022-08-09T16:25:51.892Z,2.25
2022-08-09T16:29:11.331Z,2.60
2022-08-09T16:32:33.213Z,2.25
2022-08-09T16:35:56.150Z,2.50
2022-08-09T16:39:01.756Z,2.30
2022-08-09T16:42:07.259Z,2.20
2022-08-09T16:45:11.146Z,2.33
2022-08-09T16:48:41.610Z,2.60
2022-08-09T16:51:36.727Z,2.40
2022-08-09T16:54:42.080Z,2.35
2022-08-09T16:58:08.875Z,2.30
2022-08-09T17:01:08.353Z,2.05
2022-08-09T17:04:28.055Z,2.28
2022-08-09T17:08:47.088Z,2.12
2022-08-09T17:10:54.968Z,2.20
2022-08-09T17:14:01.294Z,2.00
2022-08-09T17:17:12.770Z,1.95
2022-08-09T17:20:37.441Z,2.28
2022-08-09T17:24:28.071Z,2.17
2022-08-09T17:27:06.665Z,2.20
2022-08-09T17:30:19.810Z,2.35
2022-08-09T17:33:23.589Z,2.30
2022-08-09T17:36:26.371Z,2.15
2022-08-09T17:39:48.306Z,2.03
2022-08-09T17:42:55.654Z,2.37
2022-08-09T17:46:06.931Z,1.92
2022-08-09T17:49:10.290Z,2.20
2022-08-09T17:52:20.670Z,2.00
2022-08-09T17:55:25.383Z,2.17
2022-08-09T17:58:48.435Z,1.90
2022-08-09T18:02:06.401Z,2.30
2022-08-09T18:05:14.192Z,2.10
2022-08-09T18:08:16.727Z,2.40
2022-08-09T18:11:20.741Z,2.45
2022-08-09T18:14:27.024Z,2.10
2022-08-09T18:18:02.601Z,2.53
2022-08-09T18:21:10.466Z,2.30
2022-08-09T18:24:16.879Z,2.33
2022-08-09T18:28:02.132Z,2.92
2022-08-09T18:30:49.448Z,2.83
2022-08-09T18:33:53.531Z,2.65
2022-08-09T18:36:56.948Z,2.58
2022-08-09T18:40:00.419Z,3.40
2022-08-09T18:43:03.801Z,2.20
2022-08-09T18:46:46.544Z,2.03
2022-08-09T18:49:31.923Z,1.77
2022-08-09T18:52:44.980Z,1.62
2022-08-09T18:56:05.021Z,1.60
2022-08-09T18:59:08.309Z,1.48
2022-08-09T19:02:12.054Z,1.40
2022-08-09T19:05:20.673Z,1.50
2022-08-09T19:08:41.266Z,1.37
2022-08-09T19:11:57.956Z,1.20
2022-08-09T19:15:00.911Z,1.25
2022-08-09T19:18:06.440Z,1.23
2022-08-09T19:21:21.634Z,1.25
2022-08-09T19:25:11.328Z,1.30
2022-08-09T19:28:06.568Z,1.30
2022-08-09T19:31:09.128Z,1.20
2022-08-09T19:34:21.798Z,1.20
2022-08-09T19:37:26.177Z,1.08
2022-08-09T19:40:33.225Z,1.40
2022-08-09T19:44:01.009Z,1.62
2022-08-09T19:47:00.195Z,1.48
2022-08-09T19:50:08.929Z,1.30
2022-08-09T19:53:26.447Z,1.00
2022-08-09T19:56:29.625Z,1.40
2022-08-09T19:59:58.270Z,1.08
2022-08-09T20:04:07.437Z,1.10
2022-08-09T20:06:31.253Z,0.90
2022-08-09T20:09:44.958Z,1.00
2022-08-09T20:12:49.105Z,0.90
2022-08-09T20:16:34.502Z,0.98
2022-08-09T20:19:42.420Z,1.00
2022-08-09T20:22:44.735Z,0.80
2022-08-09T20:28:55.805Z,1.00
2022-08-09T20:32:30.891Z,0.80
2022-08-09T20:35:21.879Z,0.70
2022-08-09T20:38:34.003Z,0.90
2022-08-09T20:41:49.121Z,1.10
2022-08-09T20:45:04.518Z,0.80
2022-08-09T20:48:20.855Z,0.90
2022-08-09T20:54:27.859Z,0.73
2022-08-09T20:57:32.521Z,0.82
2022-08-09T21:00:36.176Z,0.90
2022-08-09T21:04:07.906Z,0.80
2022-08-09T21:07:13.758Z,0.85
2022-08-09T21:10:17.739Z,0.93
2022-08-09T21:13:21.359Z,1.00
2022-08-09T21:16:28.256Z,1.17
2022-08-09T21:20:05.069Z,0.90
2022-08-09T21:22:56.016Z,0.90
2022-08-09T21:26:00.269Z,0.80
2022-08-09T21:29:12.035Z,0.80
2022-08-09T21:32:18.769Z,1.05
2022-08-09T21:35:22.051Z,0.95
2022-08-09T21:38:31.069Z,1.10
2022-08-09T21:42:05.479Z,0.93
2022-08-09T21:44:58.024Z,0.90
2022-08-09T21:48:00.849Z,1.20
2022-08-09T21:51:03.434Z,0.90
2022-08-09T21:54:06.295Z,0.80
2022-08-09T21:57:36.942Z,0.90
2022-08-09T22:00:35.902Z,0.75
2022-08-09T22:03:58.948Z,0.80
2022-08-09T22:07:02.086Z,0.80
2022-08-09T22:10:10.784Z,0.90
2022-08-09T22:13:13.857Z,0.80
2022-08-09T22:16:21.326Z,0.90
2022-08-09T22:19:59.103Z,0.80
2022-08-09T22:22:49.393Z,0.90
2022-08-09T22:26:07.033Z,0.80
2022-08-09T22:29:12.554Z,1.10
2022-08-09T22:32:29.688Z,0.88
2022-08-09T22:36:01.924Z,0.88
2022-08-09T22:38:56.886Z,1.92
2022-08-09T22:42:04.094Z,0.80
2022-08-09T22:48:10.777Z,1.08
2022-08-09T22:48:50.280Z,1.00
2022-08-09T22:51:56.980Z,0.85
2022-08-09T22:55:00.316Z,0.90
2022-08-09T22:58:04.965Z,1.12
2022-08-09T23:01:08.231Z,0.90
2022-08-09T23:04:10.755Z,0.90
2022-08-09T23:08:22.073Z,1.00
2022-08-09T23:10:54.615Z,0.80
2022-08-09T23:13:58.737Z,0.90
2022-08-09T23:17:01.279Z,0.93
2022-08-09T23:20:07.832Z,1.10
2022-08-09T23:23:10.896Z,0.80
2022-08-09T23:26:13.680Z,1.00
2022-08-09T23:29:17.741Z,0.98
2022-08-09T23:32:20.564Z,0.88
2022-08-09T23:35:23.595Z,1.10
2022-08-09T23:38:26.432Z,1.30
2022-08-09T23:41:29.748Z,1.20
2022-08-09T23:44:32.716Z,1.25
2022-08-09T23:47:35.203Z,1.10
2022-08-09T23:50:38.122Z,1.30
2022-08-09T23:53:40.663Z,0.90
2022-08-09T23:56:53.920Z,1.25
